Time;durP1;ratioP1;P1;durP2;ratioP2;P2;SDS_P1;SDS_P2;PMS_P1;PMS_P2;Temp;Humidity;BMP_temperature;BMP_pressure;BME280_temperature;BME280_humidity;BME280_pressure;Samples;Min_cycle;Max_cycle;Signal;HPM_P1;HPM_P2
2023/07/18 01:02:53;;;;;;;4.40;1.45;;;16.90;99.90;;;;;;5429131;23;20131;-85
2023/07/18 05:42:54;;;;;;;5.15;1.90;;;;;;;;;;4859032;29;20054;-83
2023/07/18 05:45:23;;;;;;;6.00;2.15;;;;;;;;;;4867155;29;20032;-83
2023/07/18 05:47:51;;;;;;;4.43;1.88;;;;;;;;;;4856712;29;20050;-84
2023/07/18 05:50:20;;;;;;;21.70;3.67;;;;;;;;;;4859020;29;20054;-88
2023/07/18 05:52:53;;;;;;;7.22;2.50;;;;;;;;;;4860977;29;20535;-83
2023/07/18 05:55:28;;;;;;;7.45;2.50;;;;;;;;;;4861002;29;20099;-87
2023/07/18 05:57:57;;;;;;;4.82;1.98;;;;;;;;;;4874068;29;20070;-85
2023/07/18 06:00:25;;;;;;;6.70;2.17;;;;;;;;;;4868809;29;20090;-84
2023/07/18 06:02:56;;;;;;;7.35;2.55;;;;;;;;;;4864234;29;20045;-83
2023/07/18 06:05:23;;;;;;;6.03;2.20;;;;;;;;;;4866614;29;20087;-85
2023/07/18 06:07:49;;;;;;;4.03;1.92;;;;;;;;;;4864126;29;20042;-83
2023/07/18 06:10:16;;;;;;;4.03;2.15;;;;;;;;;;4863537;29;20021;-83
2023/07/18 06:12:42;;;;;;;6.55;2.65;;;;;;;;;;4863993;29;20026;-84
2023/07/18 06:15:18;;;;;;;6.55;2.50;;;;;;;;;;4855950;29;20034;-85
2023/07/18 06:20:24;;;;;;;6.60;2.33;;;;;;;;;;4928395;23;20080;-86
2023/07/18 06:22:50;;;;;;;4.80;2.15;;;;;;;;;;4857061;29;20018;-86
2023/07/18 06:38:13;;;;;;;5.00;1.90;;;;;;;;;;4873898;29;20065;-85
2023/07/18 06:40:39;;;;;;;6.82;2.83;;;;;;;;;;4859994;29;20038;-86
2023/07/18 06:43:06;;;;;;;5.00;2.17;;;;;;;;;;4862968;29;20014;-86
2023/07/18 06:45:33;;;;;;;5.13;2.40;;;;;;;;;;4869813;29;20017;-84
2023/07/18 08:02:45;;;;;;;6.78;2.28;;;22.50;97.00;;;;;;1059149;23;20308;-82
2023/07/18 08:05:12;;;;;;;6.10;2.13;;;;;;;;;;4853421;29;20051;-87
2023/07/18 08:07:58;;;;;;;3.13;1.70;;;;;;;;;;4870524;29;20014;-85
2023/07/18 08:10:24;;;;;;;3.33;1.77;;;;;;;;;;4856508;29;20050;-86
2023/07/18 08:12:52;;;;;;;3.67;2.08;;;;;;;;;;4867117;29;20053;-83
2023/07/18 08:15:19;;;;;;;7.65;2.00;;;;;;;;;;4851748;29;20098;-84
2023/07/18 08:17:45;;;;;;;7.07;2.00;;;;;;;;;;4846378;29;20106;-83
2023/07/18 08:20:12;;;;;;;6.15;2.00;;;;;;;;;;4865086;29;20030;-82
2023/07/18 08:22:41;;;;;;;4.93;2.00;;;;;;;;;;4847639;29;20018;-85
2023/07/18 08:25:08;;;;;;;3.92;1.90;;;;;;;;;;4851595;29;20072;-83
2023/07/18 08:27:35;;;;;;;7.30;2.20;;;;;;;;;;4842612;29;20045;-83
2023/07/18 08:30:09;;;;;;;5.50;1.77;;;23.30;93.30;;;;;;4847162;29;20034;-84
2023/07/18 08:32:37;;;;;;;5.45;1.98;;;;;;;;;;4844588;29;20118;-86
2023/07/18 08:35:07;;;;;;;6.75;2.20;;;;;;;;;;4844221;29;20027;-84
2023/07/18 08:37:33;;;;;;;4.55;2.03;;;;;;;;;;4842767;29;20074;-83
2023/07/18 08:40:29;;;;;;;6.22;2.10;;;23.80;93.90;;;;;;4856717;29;20015;-87
2023/07/18 08:43:00;;;;;;;5.88;2.15;;;;;;;;;;4861277;29;20078;-84
2023/07/18 08:45:30;;;;;;;6.07;2.05;;;;;;;;;;4848943;29;20042;-83
2023/07/18 08:48:01;;;;;;;6.65;2.42;;;;;;;;;;4844813;29;20019;-83
2023/07/18 08:50:30;;;;;;;5.72;2.40;;;;;;;;;;4862019;29;20049;-85
2023/07/18 08:52:57;;;;;;;3.28;1.80;;;;;;;;;;4867162;29;20025;-82
2023/07/18 08:55:29;;;;;;;2.92;1.98;;;;;;;;;;4849208;29;20022;-82
2023/07/18 08:58:01;;;;;;;5.10;1.70;;;;;;;;;;4849327;29;20097;-83
2023/07/18 09:00:28;;;;;;;4.28;1.60;;;;;;;;;;4852424;29;20057;-85
2023/07/18 09:54:48;;;;;;;6.57;1.80;;;;;;;;;;4838964;29;20030;-85
2023/07/18 09:57:48;;;;;;;4.40;1.70;;;;;;;;;;4846392;29;20034;-83
2023/07/18 10:00:28;;;;;;;6.30;1.60;;;;;;;;;;4863127;29;20029;-86
2023/07/18 10:16:20;;;;;;;5.53;1.90;;;26.30;82.60;;;;;;4940798;23;20078;-83
2023/07/18 10:19:02;;;;;;;3.65;1.70;;;;;;;;;;4872660;29;20053;-83
2023/07/18 10:21:32;;;;;;;6.53;1.80;;;;;;;;;;4860756;29;20078;-84
2023/07/18 10:24:23;;;;;;;4.88;1.88;;;;;;;;;;4866949;29;20037;-82
2023/07/18 10:27:31;;;;;;;5.38;2.20;;;;;;;;;;4867707;29;20086;-81
2023/07/18 10:30:19;;;;;;;4.38;1.70;;;;;;;;;;4866066;29;20036;-81
2023/07/18 10:33:09;;;;;;;3.95;1.40;;;;;;;;;;4860136;29;20038;-83
2023/07/18 10:35:41;;;;;;;4.95;1.83;;;25.90;82.20;;;;;;4850946;29;20038;-83
2023/07/18 10:38:16;;;;;;;4.72;1.63;;;;;;;;;;4896014;29;20029;-82
2023/07/18 10:40:48;;;;;;;6.43;1.88;;;;;;;;;;4869754;29;20018;-82
2023/07/18 10:43:20;;;;;;;6.78;2.00;;;;;;;;;;4865676;29;20026;-85
2023/07/18 10:45:50;;;;;;;4.93;1.52;;;;;;;;;;4879840;29;20018;-82
2023/07/18 10:48:28;;;;;;;4.60;1.90;;;;;;;;;;4843432;29;20014;-83
2023/07/18 10:51:45;;;;;;;5.88;1.85;;;;;;;;;;4866143;29;20038;-82
2023/07/18 10:54:45;;;;;;;3.92;1.55;;;26.60;81.50;;;;;;4854540;29;20050;-85
2023/07/18 10:57:34;;;;;;;4.50;1.92;;;;;;;;;;4863028;29;20010;-82
2023/07/18 11:00:20;;;;;;;9.02;2.00;;;;;;;;;;4850972;29;20042;-83
2023/07/18 11:02:57;;;;;;;5.07;1.70;;;;;;;;;;4858388;29;20034;-83
2023/07/18 11:09:05;;;;;;;3.60;1.60;;;;;;;;;;4848019;29;20075;-83
2023/07/18 11:12:08;;;;;;;4.00;1.70;;;;;;;;;;4854524;29;20050;-84
2023/07/18 11:18:27;;;;;;;3.70;1.75;;;;;;;;;;4828453;29;20040;-84
2023/07/18 11:20:54;;;;;;;4.50;1.95;;;;;;;;;;4828187;29;20086;-85
2023/07/18 11:23:24;;;;;;;4.55;2.00;;;;;;;;;;4820453;29;20021;-82
2023/07/18 13:04:23;;;;;;;3.67;1.77;;;;;;;;;;4846654;29;20403;-87
2023/07/18 13:07:26;;;;;;;5.10;2.15;;;28.60;71.50;;;;;;4851423;29;20521;-82
2023/07/18 13:09:57;;;;;;;4.82;2.00;;;;;;;;;;4880639;29;20573;-83
2023/07/18 13:12:41;;;;;;;3.75;2.03;;;;;;;;;;4863355;29;20093;-83
2023/07/18 13:15:35;;;;;;;5.18;2.22;;;28.60;71.30;;;;;;4868629;29;20030;-84
2023/07/18 13:27:45;;;;;;;2.83;1.92;;;;;;;;;;4863252;29;20065;-83
2023/07/18 13:33:36;;;;;;;4.47;2.00;;;;;;;;;;4865740;29;20131;-86
2023/07/18 13:36:06;;;;;;;5.50;2.20;;;;;;;;;;4849298;29;20022;-87
2023/07/18 13:38:32;;;;;;;8.32;2.00;;;;;;;;;;4845934;29;20026;-85
2023/07/18 13:40:59;;;;;;;4.82;1.90;;;;;;;;;;4837727;29;20031;-85
2023/07/18 13:43:25;;;;;;;4.50;1.92;;;;;;;;;;4845182;29;20033;-85
2023/07/18 13:45:51;;;;;;;5.40;2.00;;;;;;;;;;4853156;29;20046;-85
2023/07/18 13:48:17;;;;;;;5.13;2.17;;;28.90;71.10;;;;;;4860171;29;20422;-86
2023/07/18 13:50:42;;;;;;;5.22;2.20;;;29.10;70.90;;;;;;4842710;29;20142;-85
2023/07/18 13:53:08;;;;;;;4.63;2.00;;;;;;;;;;4836346;29;20026;-84
2023/07/18 13:55:34;;;;;;;5.78;2.40;;;29.20;70.50;;;;;;4848741;29;20025;-85
2023/07/18 13:57:59;;;;;;;4.03;2.13;;;29.20;71.90;;;;;;4843739;29;20029;-84
2023/07/18 14:00:25;;;;;;;3.92;2.00;;;29.10;71.30;;;;;;4860887;29;20030;-84
2023/07/18 14:02:51;;;;;;;4.32;2.30;;;;;;;;;;4846109;29;20038;-85
2023/07/18 14:05:17;;;;;;;4.85;2.15;;;;;;;;;;4846172;29;20038;-84
2023/07/18 14:07:43;;;;;;;4.28;1.95;;;;;;;;;;4847620;29;20523;-85
2023/07/18 14:13:14;;;;;;;5.47;2.28;;;;;;;;;;4843417;29;20136;-85
2023/07/18 14:15:41;;;;;;;4.75;2.10;;;;;;;;;;4844297;29;20070;-86
2023/07/18 14:18:07;;;;;;;5.60;2.03;;;;;;;;;;4841259;29;20038;-86
2023/07/18 14:20:33;;;;;;;6.93;2.03;;;;;;;;;;4859950;29;20124;-86
2023/07/18 14:22:59;;;;;;;5.05;2.03;;;;;;;;;;4845207;29;20033;-86
2023/07/18 14:25:25;;;;;;;4.43;1.80;;;;;;;;;;4839178;29;20037;-86
2023/07/18 14:27:51;;;;;;;6.40;1.92;;;;;;;;;;4841607;29;20039;-86
2023/07/18 14:30:19;;;;;;;3.80;1.88;;;;;;;;;;4847396;29;20030;-87
2023/07/18 14:32:45;;;;;;;4.45;2.00;;;;;;;;;;4845796;29;20029;-86
2023/07/18 14:35:11;;;;;;;3.65;1.90;;;;;;;;;;4844888;29;20034;-87
2023/07/18 14:37:37;;;;;;;3.45;1.60;;;;;;;;;;4836075;29;20033;-86
2023/07/18 14:40:05;;;;;;;6.82;2.15;;;;;;;;;;4834238;29;20062;-86
2023/07/18 14:42:32;;;;;;;3.80;2.00;;;;;;;;;;4849460;29;20129;-85
2023/07/18 14:44:58;;;;;;;6.90;2.25;;;;;;;;;;4856690;29;20038;-86
2023/07/18 14:47:24;;;;;;;5.60;2.30;;;;;;;;;;4842617;29;20037;-85
2023/07/18 14:49:50;;;;;;;4.60;2.15;;;;;;;;;;4840445;29;21744;-86
2023/07/18 14:52:16;;;;;;;7.13;2.15;;;;;;;;;;4840770;29;20054;-86
2023/07/18 14:54:42;;;;;;;4.22;1.98;;;;;;;;;;4844264;29;20035;-85
2023/07/18 14:57:08;;;;;;;4.25;1.83;;;;;;;;;;4842950;29;20542;-85
2023/07/18 14:59:34;;;;;;;3.63;1.85;;;;;;;;;;4845507;29;20034;-83
2023/07/18 15:02:00;;;;;;;5.10;2.20;;;;;;;;;;4841103;29;20033;-85
2023/07/18 15:04:26;;;;;;;5.97;2.67;;;;;;;;;;4843166;29;20117;-85
2023/07/18 15:06:53;;;;;;;7.10;2.33;;;;;;;;;;4842858;29;20536;-84
2023/07/18 15:09:23;;;;;;;5.10;1.80;;;;;;;;;;4846984;29;20022;-85
2023/07/18 15:11:49;;;;;;;5.45;2.17;;;;;;;;;;4846180;29;20045;-87
2023/07/18 15:14:16;;;;;;;4.55;2.30;;;;;;;;;;4855277;29;20053;-86
2023/07/18 15:16:42;;;;;;;3.35;1.90;;;;;;;;;;4844471;29;20125;-85
2023/07/18 15:19:08;;;;;;;4.57;1.83;;;;;;;;;;4847120;29;20080;-85
2023/07/18 15:21:39;;;;;;;6.22;2.30;;;29.20;70.20;;;;;;4845536;29;20264;-84
2023/07/18 15:24:05;;;;;;;3.55;1.92;;;29.10;70.70;;;;;;4841614;29;20034;-84
2023/07/18 15:26:31;;;;;;;5.35;2.25;;;;;;;;;;4844970;29;20030;-87
2023/07/18 15:28:57;;;;;;;5.40;2.13;;;;;;;;;;4847940;29;20037;-85
2023/07/18 15:31:23;;;;;;;4.15;2.28;;;;;;;;;;4843398;29;20622;-84
2023/07/18 15:33:49;;;;;;;3.90;2.30;;;;;;;;;;4845792;29;20030;-85
2023/07/18 15:36:27;;;;;;;5.90;2.33;;;;;;;;;;4848272;29;20058;-84
2023/07/18 15:38:53;;;;;;;5.70;2.53;;;;;;;;;;4860502;29;20018;-87
2023/07/18 15:41:19;;;;;;;3.90;2.25;;;;;;;;;;4860504;29;20029;-88
2023/07/18 15:43:45;;;;;;;5.57;2.03;;;;;;;;;;4872090;29;20027;-88
2023/07/18 15:46:11;;;;;;;3.83;1.83;;;;;;;;;;4874429;29;20028;-88
2023/07/18 15:48:43;;;;;;;4.15;2.30;;;;;;;;;;4865321;29;20082;-87
2023/07/18 15:54:31;;;;;;;3.90;2.13;;;;;;;;;;4864483;29;20051;-86
2023/07/18 15:56:57;;;;;;;4.75;2.47;;;;;;;;;;4875802;29;20306;-88
2023/07/18 15:59:23;;;;;;;4.20;2.17;;;;;;;;;;4862532;29;20050;-86
2023/07/18 16:01:53;;;;;;;3.90;2.45;;;;;;;;;;4862464;29;20014;-86
2023/07/18 16:04:19;;;;;;;4.55;1.88;;;;;;;;;;4876032;29;20365;-88
2023/07/18 16:06:45;;;;;;;6.60;3.25;;;;;;;;;;4861925;29;20018;-86
2023/07/18 16:09:11;;;;;;;4.93;2.13;;;;;;;;;;4846874;29;20034;-86
2023/07/18 16:11:38;;;;;;;4.13;2.10;;;;;;;;;;4844487;29;20049;-86
2023/07/18 16:14:07;;;;;;;3.70;2.17;;;;;;;;;;4842968;29;20035;-87
2023/07/18 16:16:33;;;;;;;6.50;2.15;;;;;;;;;;4844469;29;20030;-85
2023/07/18 16:19:03;;;;;;;4.18;2.40;;;;;;;;;;4856015;29;20037;-87
2023/07/18 16:21:29;;;;;;;4.90;1.85;;;;;;;;;;4850978;29;20440;-85
2023/07/18 16:23:55;;;;;;;4.82;2.33;;;;;;;;;;4834071;29;20046;-87
2023/07/18 16:26:21;;;;;;;4.90;2.05;;;;;;;;;;4845330;29;20038;-87
2023/07/18 16:28:52;;;;;;;6.03;2.20;;;;;;;;;;4846276;29;20026;-86
2023/07/18 16:31:19;;;;;;;3.90;2.17;;;29.40;69.70;;;;;;4844672;29;20069;-87
2023/07/18 16:33:45;;;;;;;6.10;2.40;;;;;;;;;;4856647;29;20026;-86
2023/07/18 16:36:12;;;;;;;8.88;2.20;;;;;;;;;;4841224;29;20186;-87
2023/07/18 16:38:38;;;;;;;4.70;1.98;;;;;;;;;;4843063;29;20056;-84
2023/07/18 16:41:04;;;;;;;4.68;2.30;;;;;;;;;;4844147;29;20034;-83
2023/07/18 16:43:30;;;;;;;4.40;2.20;;;;;;;;;;4845284;29;20041;-83
2023/07/18 16:45:57;;;;;;;5.35;2.45;;;;;;;;;;4842163;29;20026;-83
2023/07/18 16:48:24;;;;;;;7.05;2.28;;;;;;;;;;4845467;29;20042;-82
2023/07/18 16:50:50;;;;;;;4.25;2.25;;;;;;;;;;4843030;29;20030;-83
2023/07/18 16:53:16;;;;;;;4.47;2.20;;;;;;;;;;4840265;29;20450;-86
2023/07/18 16:55:42;;;;;;;5.72;2.00;;;;;;;;;;4850783;29;20086;-86
2023/07/18 16:58:09;;;;;;;4.55;2.40;;;29.50;69.00;;;;;;4841934;29;20025;-84
2023/07/18 17:00:36;;;;;;;5.18;2.63;;;;;;;;;;4843080;29;20038;-83
2023/07/18 17:03:02;;;;;;;3.10;1.85;;;;;;;;;;4856504;29;20039;-85
2023/07/18 17:05:28;;;;;;;3.88;2.33;;;;;;;;;;4840952;29;20057;-85
2023/07/18 17:07:54;;;;;;;5.80;2.20;;;;;;;;;;4849744;29;20037;-87
2023/07/18 17:10:20;;;;;;;5.53;1.92;;;29.70;68.50;;;;;;4851955;29;20049;-84
2023/07/18 17:12:46;;;;;;;4.68;2.20;;;;;;;;;;4841208;29;20036;-82
2023/07/18 17:15:12;;;;;;;4.63;2.28;;;;;;;;;;4835682;29;20034;-84
2023/07/18 17:17:38;;;;;;;7.63;2.30;;;;;;;;;;4837803;29;20030;-84
2023/07/18 17:20:05;;;;;;;5.25;2.10;;;29.40;68.60;;;;;;4838792;29;20095;-84
2023/07/18 17:22:31;;;;;;;5.63;2.17;;;;;;;;;;4841329;29;20029;-82
2023/07/18 17:24:57;;;;;;;5.93;2.13;;;;;;;;;;4843732;29;20479;-83
2023/07/18 17:27:23;;;;;;;4.47;2.33;;;;;;;;;;4843779;29;20105;-85
2023/07/18 17:29:50;;;;;;;4.80;2.20;;;;;;;;;;4843083;29;20041;-84
2023/07/18 17:32:19;;;;;;;3.53;1.95;;;;;;;;;;4841494;29;20057;-85
2023/07/18 17:34:49;;;;;;;3.95;2.05;;;;;;;;;;4844238;29;20026;-83
2023/07/18 17:37:44;;;;;;;;;;;;;;;;;;;;;
2023/07/18 17:40:13;;;;;;;3.95;2.22;;;;;;;;;;4843109;29;20034;-86
2023/07/18 17:42:44;;;;;;;5.03;2.30;;;;;;;;;;4852722;29;20034;-84
2023/07/18 17:45:12;;;;;;;5.18;2.45;;;28.70;70.10;;;;;;4836684;29;20030;-84
2023/07/18 17:47:39;;;;;;;4.15;2.30;;;;;;;;;;4845731;29;20478;-84
2023/07/18 17:50:06;;;;;;;3.55;2.30;;;;;;;;;;4849421;29;20058;-86
2023/07/18 17:52:32;;;;;;;5.25;2.85;;;;;;;;;;4845149;29;20034;-83
2023/07/18 17:54:58;;;;;;;6.15;3.13;;;;;;;;;;4843737;29;20055;-83
2023/07/18 17:57:27;;;;;;;3.33;2.20;;;;;;;;;;4838960;29;20557;-85
2023/07/18 17:59:53;;;;;;;5.57;3.35;;;;;;;;;;4857573;29;20033;-85
2023/07/18 18:02:19;;;;;;;8.73;2.65;;;;;;;;;;4844795;29;20037;-86
2023/07/18 18:04:49;;;;;;;6.32;2.70;;;;;;;;;;4842005;29;20117;-86
2023/07/18 18:07:15;;;;;;;5.63;2.30;;;;;;;;;;4849423;29;22996;-84
2023/07/18 18:09:44;;;;;;;6.82;2.67;;;;;;;;;;4840447;29;20045;-85
2023/07/18 18:12:10;;;;;;;;;;;27.80;71.50;;;;;;4845165;29;20036;-84
2023/07/18 18:14:37;;;;;;;6.68;2.60;;;;;;;;;;4845789;29;19994;-85
2023/07/18 18:17:03;;;;;;;4.85;2.15;;;;;;;;;;4844137;29;20057;-85
2023/07/18 18:19:29;;;;;;;4.45;2.65;;;;;;;;;;4846392;29;20043;-84
2023/07/18 18:22:16;;;;;;;5.38;2.60;;;;;;;;;;4857511;29;20038;-85
2023/07/18 18:24:42;;;;;;;4.78;2.72;;;;;;;;;;4843725;29;20107;-87
2023/07/18 18:27:12;;;;;;;5.60;2.50;;;;;;;;;;4852465;29;20030;-84
2023/07/18 18:30:04;;;;;;;4.32;2.70;;;;;;;;;;4843464;29;20022;-82
2023/07/18 18:33:38;;;;;;;7.07;2.65;;;;;;;;;;4839635;29;20038;-84
2023/07/18 18:36:23;;;;;;;;;;;;;;;;;;;;;
2023/07/18 18:38:54;;;;;;;7.47;4.03;;;;;;;;;;4848103;29;19916;-83
2023/07/18 18:41:39;;;;;;;6.20;2.80;;;;;;;;;;4839925;29;20073;-85
2023/07/18 18:44:11;;;;;;;4.57;2.70;;;;;;;;;;4834541;29;20490;-84
2023/07/18 18:46:40;;;;;;;8.00;3.78;;;;;;;;;;4839913;29;20074;-83
2023/07/18 18:49:15;;;;;;;7.38;3.03;;;;;;;;;;4842874;29;20019;-84
2023/07/18 18:51:49;;;;;;;9.73;3.13;;;;;;;;;;4846983;29;20037;-85
2023/07/18 18:54:16;;;;;;;6.00;3.33;;;;;;;;;;4843180;29;20037;-84
2023/07/18 18:56:51;;;;;;;6.10;3.42;;;;;;;;;;4848785;29;20046;-84
2023/07/18 19:57:32;;;;;;;5.30;3.10;;;;;;;;;;4833738;23;20061;-79
2023/07/18 20:00:03;;;;;;;5.03;3.20;;;;;;;;;;4804305;29;20035;-79
2023/07/18 20:02:30;;;;;;;6.60;3.17;;;;;;;;;;4807776;29;20042;-79
2023/07/18 20:05:30;;;;;;;10.75;3.40;;;25.00;91.30;;;;;;4820476;29;20455;-79
2023/07/18 20:09:02;;;;;;;11.43;3.05;;;;;;;;;;4802856;29;20058;-79
2023/07/18 20:11:15;;;;;;;5.25;3.30;;;24.70;93.70;;;;;;4810842;29;20053;-80
2023/07/18 20:13:55;;;;;;;5.57;3.13;;;;;;;;;;4805034;29;20030;-79
2023/07/18 20:16:46;;;;;;;6.30;2.75;;;;;;;;;;4804825;29;20050;-80
2023/07/18 20:19:38;;;;;;;6.07;3.17;;;24.40;95.00;;;;;;4802054;29;20098;-81
2023/07/18 20:22:22;;;;;;;5.60;3.35;;;;;;;;;;4801751;29;20476;-81
2023/07/18 20:25:04;;;;;;;5.72;3.65;;;24.30;96.30;;;;;;4804911;29;20039;-79
2023/07/18 20:27:59;;;;;;;5.90;3.15;;;;;;;;;;4807025;29;20051;-80
2023/07/18 20:31:11;;;;;;;4.55;2.90;;;;;;;;;;4805930;29;20034;-80
2023/07/18 20:33:51;;;;;;;7.85;3.58;;;24.00;97.20;;;;;;4808042;29;20088;-81
2023/07/18 20:36:23;;;;;;;7.25;3.45;;;;;;;;;;4805824;29;20054;-81
2023/07/18 20:39:01;;;;;;;7.88;3.25;;;;;;;;;;4807581;29;20456;-80
2023/07/18 20:41:31;;;;;;;7.13;3.28;;;;;;;;;;4826078;29;20133;-81
